Haleakala, Hawaii
Current Conditions -  °F | °C
As of 4:54 PM on Friday 28 Nov 2014 (Local Time) from PHOG Reporting Station
Scattered Clouds Scattered Clouds  
Wind Chill: 73°   Ceiling: Unl
Heat Index: 73°   Visibility: 10mi
Dew Point: 64°   Wind: 12mph
Humidity: 73%   Direction: 60°ENE
Pressure: 30.01"   Gusts: NA
Location:  20.72°N, 156.13°W
Report Text: PHOG 290254Z 06010KT 10SM FEW027 SCT065 23/18 A3001 RMK AO2 SLP168 60000 T02280178 53002 $
Loading
Personal Weather Stations






























Interactive Weather Map New forecast layout! Learn more

10-Day Weather Forecast

Advertisements
Track Severe Weather on mobile